Time;durP1;ratioP1;P1;durP2;ratioP2;P2;SDS_P1;SDS_P2;PMS_P1;PMS_P2;Temp;Humidity;BMP_temperature;BMP_pressure;BME280_temperature;BME280_humidity;BME280_pressure;Samples;Min_cycle;Max_cycle;Signal;HPM_P1;HPM_P2
2021/08/09 00:00:09;;;;;;;4.70;1.60;;;16.30;77.40;;;;;;5053242;28;20082;-75
2021/08/09 00:02:35;;;;;;;3.60;1.50;;;16.30;77.40;;;;;;5064845;28;20478;-74
2021/08/09 00:05:00;;;;;;;6.32;1.90;;;16.30;77.30;;;;;;5051419;28;20109;-73
2021/08/09 00:07:26;;;;;;;6.68;2.10;;;16.30;77.20;;;;;;5049567;28;20044;-74
2021/08/09 00:09:53;;;;;;;3.90;1.90;;;16.30;77.30;;;;;;5052219;28;20071;-75
2021/08/09 00:12:19;;;;;;;4.88;2.17;;;16.30;77.30;;;;;;5053003;28;20124;-74
2021/08/09 00:14:44;;;;;;;4.97;1.73;;;16.30;77.30;;;;;;5052381;28;20551;-75
2021/08/09 00:17:10;;;;;;;3.35;1.70;;;16.30;77.30;;;;;;5051865;28;20060;-74
2021/08/09 00:19:35;;;;;;;3.55;1.60;;;16.30;77.20;;;;;;5052045;28;20052;-74
2021/08/09 00:22:01;;;;;;;3.45;1.80;;;16.30;77.70;;;;;;5052834;28;20033;-73
2021/08/09 00:24:28;;;;;;;3.70;1.55;;;16.30;77.10;;;;;;5053718;28;20052;-75
2021/08/09 00:26:53;;;;;;;3.60;1.63;;;16.30;77.00;;;;;;5050648;28;20036;-73
2021/08/09 00:29:19;;;;;;;4.05;1.90;;;16.30;77.00;;;;;;5051796;28;20029;-72
2021/08/09 00:31:44;;;;;;;4.18;1.55;;;16.30;77.00;;;;;;5053196;28;20029;-73
2021/08/09 00:34:10;;;;;;;4.18;1.63;;;16.30;77.00;;;;;;5050318;28;20502;-73
2021/08/09 00:36:35;;;;;;;3.95;1.70;;;16.30;77.10;;;;;;5052217;28;20502;-73
2021/08/09 00:39:01;;;;;;;4.93;1.90;;;16.30;77.10;;;;;;5052531;28;20028;-74
2021/08/09 00:41:27;;;;;;;3.50;1.55;;;16.20;77.10;;;;;;5051584;28;20025;-73
2021/08/09 00:43:52;;;;;;;5.00;1.70;;;16.20;77.20;;;;;;5052565;28;20029;-73
2021/08/09 00:46:18;;;;;;;3.92;1.67;;;16.20;77.20;;;;;;5044786;28;20025;-74
2021/08/09 00:48:43;;;;;;;3.03;1.40;;;16.20;77.20;;;;;;5050502;28;20032;-73
2021/08/09 00:51:10;;;;;;;5.97;2.28;;;16.20;77.20;;;;;;5051711;28;20047;-76
2021/08/09 00:53:35;;;;;;;5.18;1.70;;;16.10;77.40;;;;;;5051149;28;20104;-76
2021/08/09 00:56:02;;;;;;;4.00;1.40;;;16.10;77.40;;;;;;5050845;28;20115;-74
2021/08/09 00:58:28;;;;;;;5.75;2.20;;;16.10;77.20;;;;;;5050738;28;20032;-77
2021/08/09 01:00:53;;;;;;;4.10;2.10;;;16.10;77.40;;;;;;5051484;28;20559;-75
2021/08/09 01:03:19;;;;;;;5.07;1.85;;;16.10;77.70;;;;;;5051565;28;20020;-75
2021/08/09 01:05:48;;;;;;;5.65;1.90;;;16.10;77.70;;;;;;5051555;28;20021;-74
2021/08/09 01:08:45;;;;;;;4.10;1.70;;;16.00;77.50;;;;;;5037887;28;20136;-74
2021/08/09 01:11:30;;;;;;;5.03;1.85;;;16.10;77.50;;;;;;5049475;28;20459;-74
2021/08/09 01:14:40;;;;;;;5.55;2.00;;;16.00;77.50;;;;;;5045346;28;20066;-75
2021/08/09 01:17:06;;;;;;;7.38;2.13;;;16.00;77.50;;;;;;5000443;28;20504;-75
2021/08/09 01:20:01;;;;;;;5.95;1.90;;;16.00;77.70;;;;;;5001434;28;20030;-74
2021/08/09 01:22:46;;;;;;;5.80;2.20;;;15.90;77.60;;;;;;5028055;28;20037;-76
2021/08/09 01:25:12;;;;;;;4.85;1.80;;;15.90;77.80;;;;;;5039884;28;20051;-75
2021/08/09 01:27:40;;;;;;;2.28;1.67;;;15.90;77.90;;;;;;5044277;28;20100;-75
2021/08/09 01:30:09;;;;;;;6.15;1.85;;;15.90;77.90;;;;;;5049267;28;20025;-75
2021/08/09 01:32:37;;;;;;;5.38;1.90;;;15.90;77.80;;;;;;5047614;28;20056;-77
2021/08/09 01:35:06;;;;;;;5.32;1.90;;;15.90;77.80;;;;;;5040931;28;20052;-75
2021/08/09 01:37:34;;;;;;;5.63;1.85;;;15.90;77.90;;;;;;5043192;28;20052;-75
2021/08/09 01:40:00;;;;;;;4.43;1.92;;;15.80;78.00;;;;;;5049665;28;20168;-75
2021/08/09 01:42:26;;;;;;;6.22;2.55;;;15.80;78.00;;;;;;5050293;28;20107;-75
2021/08/09 01:44:51;;;;;;;6.80;2.00;;;15.80;78.20;;;;;;5050382;28;20028;-74
2021/08/09 01:47:17;;;;;;;3.83;1.80;;;15.80;78.30;;;;;;5048228;28;20025;-74
2021/08/09 01:49:43;;;;;;;5.10;2.00;;;15.80;78.20;;;;;;5050613;28;20025;-74
2021/08/09 01:52:10;;;;;;;4.03;1.58;;;15.80;78.30;;;;;;5048782;28;20037;-76
2021/08/09 01:54:36;;;;;;;7.30;2.20;;;15.80;78.10;;;;;;5048968;28;20038;-75
2021/08/09 01:57:04;;;;;;;5.72;2.53;;;15.80;78.20;;;;;;5047228;28;20091;-75
2021/08/09 01:59:29;;;;;;;6.43;2.05;;;15.70;78.50;;;;;;5047330;28;20113;-75
2021/08/09 02:01:55;;;;;;;5.30;2.05;;;15.70;78.60;;;;;;5049331;28;20108;-75
2021/08/09 02:04:21;;;;;;;7.80;2.15;;;15.70;78.60;;;;;;5049957;28;20405;-75
2021/08/09 02:06:46;;;;;;;5.22;1.98;;;15.60;78.60;;;;;;5049690;28;20028;-75
2021/08/09 02:09:12;;;;;;;2.85;1.80;;;15.60;78.60;;;;;;5044216;28;20400;-78
2021/08/09 02:11:38;;;;;;;6.40;2.00;;;15.60;78.70;;;;;;5046849;28;20226;-75
2021/08/09 02:14:06;;;;;;;4.38;1.85;;;15.60;78.70;;;;;;5050226;28;20057;-74
2021/08/09 02:16:40;;;;;;;5.18;2.30;;;15.60;78.70;;;;;;5049204;28;20029;-74
2021/08/09 02:19:16;;;;;;;5.70;2.05;;;15.60;78.90;;;;;;5049962;28;20032;-75
2021/08/09 02:21:45;;;;;;;5.20;2.00;;;15.60;78.80;;;;;;5047859;28;20048;-75
2021/08/09 02:24:25;;;;;;;7.15;2.40;;;15.60;78.80;;;;;;5049572;28;20021;-75
2021/08/09 02:26:58;;;;;;;6.30;2.28;;;15.60;78.90;;;;;;5044935;28;20104;-77
2021/08/09 02:29:27;;;;;;;;;;;15.60;78.90;;;;;;5046378;28;20048;-75
2021/08/09 02:31:55;;;;;;;6.78;2.13;;;15.60;78.80;;;;;;5048836;28;19967;-75
2021/08/09 02:34:23;;;;;;;4.95;2.15;;;15.50;78.80;;;;;;5040554;28;20510;-74
2021/08/09 02:36:49;;;;;;;6.95;1.95;;;15.50;78.90;;;;;;5042393;28;20248;-74
2021/08/09 02:39:17;;;;;;;3.97;1.55;;;15.50;78.90;;;;;;5046279;28;20075;-75
2021/08/09 02:41:43;;;;;;;5.72;2.08;;;15.50;78.90;;;;;;5045939;28;20022;-75
2021/08/09 02:44:09;;;;;;;4.40;1.95;;;15.50;78.80;;;;;;5046327;28;20033;-74
2021/08/09 02:46:35;;;;;;;8.10;2.38;;;15.50;78.80;;;;;;5038814;28;20353;-75
2021/08/09 02:49:01;;;;;;;5.15;1.73;;;15.60;79.40;;;;;;5044527;28;20044;-76
2021/08/09 02:51:27;;;;;;;4.10;1.65;;;15.60;78.80;;;;;;5039861;28;20135;-76
2021/08/09 02:53:53;;;;;;;4.80;1.70;;;15.60;78.70;;;;;;5045314;28;20121;-76
2021/08/09 02:56:24;;;;;;;4.57;1.70;;;15.60;78.60;;;;;;5050863;28;20665;-76
2021/08/09 02:58:51;;;;;;;3.80;1.70;;;15.60;78.50;;;;;;5049622;28;20534;-74
2021/08/09 03:01:18;;;;;;;4.18;1.63;;;15.60;78.50;;;;;;5049929;28;20675;-75
2021/08/09 03:03:48;;;;;;;5.55;1.92;;;15.60;78.50;;;;;;5043471;28;20108;-75
2021/08/09 03:06:14;;;;;;;5.45;2.00;;;15.60;78.50;;;;;;5050529;28;20017;-74
2021/08/09 03:08:40;;;;;;;4.32;1.70;;;15.60;78.50;;;;;;5054191;28;20083;-74
2021/08/09 03:11:08;;;;;;;5.90;2.30;;;15.60;78.50;;;;;;5053662;28;20519;-75
2021/08/09 03:13:34;;;;;;;4.18;1.55;;;15.60;78.50;;;;;;5053514;28;20029;-74
2021/08/09 03:16:00;;;;;;;4.45;1.90;;;15.60;78.50;;;;;;5053152;28;20036;-74
2021/08/09 03:18:33;;;;;;;3.95;1.60;;;15.60;78.40;;;;;;5054504;28;20021;-74
2021/08/09 03:20:58;;;;;;;4.95;1.70;;;15.60;78.40;;;;;;5050750;28;20111;-75
2021/08/09 03:23:24;;;;;;;6.55;2.13;;;15.60;78.30;;;;;;5053526;28;20160;-74
2021/08/09 03:25:49;;;;;;;7.68;2.17;;;15.60;78.40;;;;;;5054418;28;20025;-73
2021/08/09 03:28:15;;;;;;;4.43;1.90;;;15.60;78.50;;;;;;5052977;28;20115;-74
2021/08/09 03:30:40;;;;;;;4.60;1.80;;;15.60;78.60;;;;;;5052893;28;20053;-73
2021/08/09 03:33:09;;;;;;;6.10;1.50;;;15.60;78.60;;;;;;5051584;28;20091;-74
2021/08/09 03:35:34;;;;;;;5.53;1.50;;;15.60;78.50;;;;;;5052880;28;20387;-77
2021/08/09 03:38:00;;;;;;;6.93;1.80;;;15.60;78.70;;;;;;5060137;28;20035;-75
2021/08/09 03:40:25;;;;;;;6.30;1.90;;;15.60;78.40;;;;;;5053351;28;20033;-76
2021/08/09 03:42:53;;;;;;;5.93;1.92;;;15.60;78.40;;;;;;5044663;28;20040;-74
2021/08/09 03:45:18;;;;;;;5.40;1.92;;;15.60;78.40;;;;;;5060822;28;20495;-74
2021/08/09 03:47:44;;;;;;;6.32;1.95;;;15.50;78.40;;;;;;5052163;28;20038;-74
2021/08/09 03:50:09;;;;;;;5.47;2.10;;;15.60;78.50;;;;;;5052852;28;20039;-76
2021/08/09 03:52:35;;;;;;;3.80;1.58;;;15.60;78.40;;;;;;5051782;28;20515;-76
2021/08/09 03:55:00;;;;;;;6.18;2.00;;;15.50;78.50;;;;;;5053633;28;20033;-74
2021/08/09 03:57:27;;;;;;;4.57;2.00;;;15.60;78.50;;;;;;5052317;28;20028;-76
2021/08/09 03:59:53;;;;;;;5.30;1.63;;;15.50;78.60;;;;;;5052551;28;20074;-75
2021/08/09 04:02:18;;;;;;;4.88;1.92;;;15.50;78.60;;;;;;5052511;28;20028;-74
2021/08/09 04:04:44;;;;;;;4.93;2.10;;;15.50;78.60;;;;;;5053509;28;20020;-73
2021/08/09 04:07:10;;;;;;;3.00;1.40;;;15.50;78.70;;;;;;5052679;28;20087;-73
2021/08/09 04:09:35;;;;;;;5.72;1.80;;;15.50;78.70;;;;;;5053119;28;20021;-74
2021/08/09 04:12:01;;;;;;;5.07;2.20;;;15.50;78.70;;;;;;5052496;28;20199;-74
2021/08/09 04:14:29;;;;;;;5.38;1.90;;;15.50;78.80;;;;;;5043490;28;20022;-74
2021/08/09 04:16:55;;;;;;;8.00;2.50;;;15.50;78.80;;;;;;5051628;28;20029;-73
2021/08/09 04:19:20;;;;;;;5.85;2.53;;;15.50;78.90;;;;;;5051804;28;20031;-74
2021/08/09 04:21:46;;;;;;;5.07;2.17;;;15.40;79.10;;;;;;5052265;28;20025;-73
2021/08/09 04:24:12;;;;;;;5.40;1.80;;;15.40;79.10;;;;;;5052068;28;20021;-73
2021/08/09 04:26:37;;;;;;;3.78;1.60;;;15.40;79.10;;;;;;5052403;28;20021;-73
2021/08/09 04:29:03;;;;;;;3.83;1.63;;;15.40;79.10;;;;;;5052426;28;20021;-73
2021/08/09 04:31:29;;;;;;;8.20;2.10;;;15.40;79.10;;;;;;5052501;28;20028;-73
2021/08/09 04:33:55;;;;;;;5.07;1.70;;;15.40;79.20;;;;;;5051738;28;20052;-75
2021/08/09 04:36:20;;;;;;;4.25;1.65;;;15.40;79.10;;;;;;5049403;28;20028;-73
2021/08/09 04:38:46;;;;;;;5.40;1.67;;;15.40;79.00;;;;;;5044322;28;20036;-73
2021/08/09 04:41:12;;;;;;;6.07;1.90;;;15.50;79.10;;;;;;5051551;28;20021;-74
2021/08/09 04:43:40;;;;;;;3.97;1.75;;;15.50;79.00;;;;;;5050546;28;20028;-75
2021/08/09 04:46:06;;;;;;;7.63;2.30;;;15.50;79.00;;;;;;5040394;28;20025;-75
2021/08/09 04:48:32;;;;;;;7.38;2.22;;;15.50;79.10;;;;;;5044252;28;20021;-75
2021/08/09 04:50:59;;;;;;;6.63;2.20;;;15.40;79.10;;;;;;5044203;28;20068;-74
2021/08/09 04:53:24;;;;;;;7.03;1.90;;;15.40;79.20;;;;;;5050171;28;20040;-76
2021/08/09 04:55:50;;;;;;;4.80;2.20;;;15.40;79.20;;;;;;5049918;28;20033;-74
2021/08/09 04:58:15;;;;;;;5.15;1.70;;;15.50;79.30;;;;;;5050510;28;20024;-74
2021/08/09 05:00:41;;;;;;;8.07;2.70;;;15.50;79.20;;;;;;5050804;28;20044;-74
2021/08/09 05:03:06;;;;;;;6.20;1.98;;;15.50;79.10;;;;;;5046412;28;20040;-74
2021/08/09 05:05:32;;;;;;;3.88;1.65;;;15.60;79.10;;;;;;5050824;28;20102;-74
2021/08/09 05:07:58;;;;;;;5.25;1.95;;;15.60;78.90;;;;;;5049119;28;20076;-74
2021/08/09 05:10:25;;;;;;;3.08;1.40;;;15.70;78.90;;;;;;5050105;28;20029;-74
2021/08/09 05:12:50;;;;;;;7.68;2.17;;;15.70;78.80;;;;;;5045940;28;20112;-74
2021/08/09 05:15:16;;;;;;;4.32;2.00;;;15.80;78.60;;;;;;5051440;28;20060;-76
2021/08/09 05:17:45;;;;;;;3.20;1.40;;;15.80;78.60;;;;;;5049542;28;20032;-74
2021/08/09 05:20:11;;;;;;;5.68;2.15;;;15.90;78.50;;;;;;5043830;28;20032;-74
2021/08/09 05:22:37;;;;;;;6.60;2.10;;;15.90;78.40;;;;;;5049645;28;20391;-75
2021/08/09 05:25:08;;;;;;;5.47;1.80;;;15.90;78.40;;;;;;5048385;28;20029;-73
2021/08/09 05:27:33;;;;;;;4.25;1.60;;;15.90;78.40;;;;;;5052359;28;20091;-73
2021/08/09 05:29:59;;;;;;;7.63;2.13;;;15.90;78.40;;;;;;5045240;28;20029;-73
2021/08/09 05:32:25;;;;;;;6.70;2.10;;;15.90;78.50;;;;;;5039953;28;20029;-75
2021/08/09 05:34:50;;;;;;;3.97;1.55;;;15.90;78.60;;;;;;5041242;28;20032;-73
2021/08/09 05:37:16;;;;;;;5.05;1.48;;;16.00;78.40;;;;;;5049373;28;20028;-75
2021/08/09 05:39:41;;;;;;;6.65;2.35;;;16.10;78.30;;;;;;5039437;28;20438;-73
2021/08/09 05:42:08;;;;;;;6.78;2.20;;;16.10;78.20;;;;;;5043576;28;20029;-73
2021/08/09 05:44:34;;;;;;;5.35;1.90;;;16.10;78.30;;;;;;5048246;28;20037;-73
2021/08/09 05:46:59;;;;;;;5.43;1.60;;;16.10;78.30;;;;;;5046739;28;20033;-73
2021/08/09 05:49:25;;;;;;;3.05;1.45;;;16.20;78.20;;;;;;5044602;28;20036;-74
2021/08/09 05:51:51;;;;;;;4.35;1.40;;;16.30;78.10;;;;;;5038854;28;20179;-75
2021/08/09 05:54:16;;;;;;;4.75;1.73;;;16.40;77.80;;;;;;5045264;28;20059;-76
2021/08/09 05:56:42;;;;;;;5.90;2.20;;;16.30;77.60;;;;;;5046674;28;20464;-76
2021/08/09 05:59:07;;;;;;;4.85;1.58;;;16.30;77.50;;;;;;5047715;28;20032;-76
2021/08/09 06:01:33;;;;;;;6.45;2.20;;;16.40;77.60;;;;;;5041380;28;20025;-77
2021/08/09 06:03:59;;;;;;;8.13;2.58;;;16.30;77.60;;;;;;5048872;28;20025;-74
2021/08/09 06:06:24;;;;;;;4.57;1.75;;;16.30;77.60;;;;;;5047783;28;20052;-75
2021/08/09 06:08:50;;;;;;;5.65;2.22;;;16.30;77.70;;;;;;5047396;28;20027;-75
2021/08/09 06:11:16;;;;;;;5.00;1.65;;;16.30;77.70;;;;;;5046929;28;20377;-75
2021/08/09 06:13:41;;;;;;;4.28;1.70;;;16.30;77.70;;;;;;5048091;28;20736;-75
2021/08/09 06:16:07;;;;;;;3.25;1.40;;;16.30;77.80;;;;;;5045721;28;20559;-75
2021/08/09 06:18:34;;;;;;;4.28;2.05;;;16.40;77.80;;;;;;5047006;28;20071;-77
2021/08/09 06:21:03;;;;;;;4.10;1.90;;;16.40;77.70;;;;;;5045943;28;20111;-75
2021/08/09 06:23:29;;;;;;;5.50;1.83;;;16.40;77.60;;;;;;5044140;28;20036;-75
2021/08/09 06:25:55;;;;;;;5.63;1.52;;;16.50;77.60;;;;;;5049585;28;20029;-75
2021/08/09 06:28:21;;;;;;;2.75;1.40;;;16.50;77.60;;;;;;5047558;28;20021;-75
2021/08/09 06:30:47;;;;;;;3.40;1.85;;;16.60;77.40;;;;;;5051723;28;20053;-74
2021/08/09 06:33:12;;;;;;;5.95;2.20;;;16.70;77.30;;;;;;5050191;28;20072;-75
2021/08/09 06:35:38;;;;;;;3.45;1.80;;;17.00;76.80;;;;;;5048301;28;20280;-75
2021/08/09 06:38:05;;;;;;;5.10;1.90;;;17.60;75.30;;;;;;5052182;28;20039;-75
2021/08/09 06:40:32;;;;;;;2.47;1.58;;;18.50;73.30;;;;;;5054983;28;20439;-75
2021/08/09 06:42:57;;;;;;;2.97;1.67;;;19.00;71.80;;;;;;5047613;28;20025;-75
2021/08/09 06:45:23;;;;;;;6.05;2.30;;;20.20;69.10;;;;;;5047896;28;20025;-76
2021/08/09 06:47:48;;;;;;;5.25;1.70;;;21.10;66.10;;;;;;5049135;28;20498;-75
2021/08/09 06:50:14;;;;;;;4.35;1.60;;;21.60;64.30;;;;;;5049941;28;20025;-75
2021/08/09 06:52:39;;;;;;;4.57;1.88;;;22.10;62.50;;;;;;5039752;28;20048;-75
2021/08/09 06:55:06;;;;;;;5.78;1.85;;;22.30;61.70;;;;;;5039338;28;20024;-74
2021/08/09 06:57:32;;;;;;;4.32;1.70;;;22.50;61.20;;;;;;5050787;28;20467;-74
2021/08/09 06:59:58;;;;;;;4.95;1.70;;;22.80;60.60;;;;;;5044168;28;20036;-74
2021/08/09 07:02:28;;;;;;;1.88;1.30;;;22.50;61.10;;;;;;5048274;28;20459;-74
2021/08/09 07:04:53;;;;;;;3.20;1.33;;;22.50;61.80;;;;;;5037243;28;20014;-75
2021/08/09 07:07:19;;;;;;;2.85;1.75;;;23.10;60.80;;;;;;5042762;28;20037;-76
2021/08/09 07:09:44;;;;;;;3.22;1.58;;;23.30;59.90;;;;;;5042167;28;20021;-75
2021/08/09 07:12:10;;;;;;;3.05;1.10;;;23.70;59.40;;;;;;5042746;28;20045;-76
2021/08/09 07:14:36;;;;;;;3.92;1.80;;;23.90;58.40;;;;;;5045663;28;20184;-75
2021/08/09 07:17:02;;;;;;;5.03;1.52;;;24.00;57.60;;;;;;5039479;28;20064;-75
2021/08/09 07:19:28;;;;;;;4.22;1.80;;;24.20;57.20;;;;;;5044257;28;20041;-75
2021/08/09 07:21:54;;;;;;;3.78;1.20;;;24.20;56.70;;;;;;5042939;28;20025;-76
2021/08/09 07:24:19;;;;;;;3.15;1.30;;;24.70;56.50;;;;;;5046974;28;20064;-75
2021/08/09 07:26:45;;;;;;;3.30;1.48;;;24.80;55.80;;;;;;5049299;28;20024;-76
2021/08/09 07:29:10;;;;;;;3.22;1.20;;;25.10;55.50;;;;;;5046964;28;20491;-75
2021/08/09 07:31:36;;;;;;;5.20;1.90;;;25.40;55.10;;;;;;5043405;28;20033;-75
2021/08/09 07:34:01;;;;;;;4.47;1.77;;;25.40;54.60;;;;;;5045248;28;20498;-75
2021/08/09 07:36:27;;;;;;;2.97;1.30;;;25.20;53.70;;;;;;5039255;28;20017;-76
2021/08/09 07:38:52;;;;;;;4.90;1.60;;;25.20;54.20;;;;;;5043868;28;20383;-75
2021/08/09 07:41:18;;;;;;;3.25;1.55;;;25.00;54.40;;;;;;5045268;28;20108;-76
2021/08/09 07:43:46;;;;;;;2.60;1.20;;;24.90;54.60;;;;;;5044699;28;20049;-75
2021/08/09 07:46:11;;;;;;;4.93;1.45;;;25.00;55.30;;;;;;5046565;28;20147;-76
2021/08/09 07:48:37;;;;;;;3.22;1.40;;;25.20;55.60;;;;;;5045103;28;20112;-74
2021/08/09 07:51:02;;;;;;;4.20;1.20;;;24.60;55.60;;;;;;5042149;28;20037;-74
2021/08/09 07:53:29;;;;;;;3.47;1.33;;;24.50;57.00;;;;;;5051590;28;20055;-75
2021/08/09 07:55:55;;;;;;;4.40;1.50;;;24.20;57.00;;;;;;5045256;28;20561;-76
2021/08/09 07:58:20;;;;;;;4.20;1.48;;;24.00;57.70;;;;;;5045657;28;20063;-75
2021/08/09 08:00:46;;;;;;;3.42;1.20;;;23.70;58.60;;;;;;5050941;28;20035;-76
2021/08/09 08:03:11;;;;;;;4.15;1.30;;;23.50;59.20;;;;;;5042789;28;20615;-75
2021/08/09 08:05:37;;;;;;;4.57;1.60;;;23.40;59.70;;;;;;5046458;28;20107;-75
2021/08/09 08:08:05;;;;;;;4.78;1.50;;;23.00;58.40;;;;;;5042668;28;20075;-76
2021/08/09 08:10:33;;;;;;;2.33;1.00;;;22.50;59.50;;;;;;5047596;28;20060;-75
2021/08/09 08:12:59;;;;;;;3.03;1.40;;;22.30;60.50;;;;;;5046904;28;20033;-75
2021/08/09 08:15:24;;;;;;;4.25;1.80;;;22.30;60.90;;;;;;5045462;28;20036;-75
2021/08/09 08:17:50;;;;;;;3.30;1.60;;;21.90;60.20;;;;;;5044139;28;20369;-73
2021/08/09 08:20:16;;;;;;;2.70;1.27;;;21.70;60.60;;;;;;5050193;28;20484;-76
2021/08/09 08:22:41;;;;;;;3.35;1.58;;;21.60;61.40;;;;;;5047131;28;20112;-74
2021/08/09 08:25:07;;;;;;;4.32;1.95;;;21.50;61.00;;;;;;5046109;28;20021;-75
2021/08/09 08:27:33;;;;;;;4.07;1.70;;;21.30;60.80;;;;;;5043511;28;20119;-75
2021/08/09 08:29:59;;;;;;;4.85;1.58;;;21.20;61.40;;;;;;5046653;28;20431;-75
2021/08/09 08:32:25;;;;;;;2.78;1.60;;;21.20;61.60;;;;;;5045863;28;20051;-76
2021/08/09 08:34:51;;;;;;;3.65;1.63;;;21.30;61.60;;;;;;5045669;28;20040;-73
2021/08/09 08:37:17;;;;;;;3.72;1.50;;;21.40;61.10;;;;;;5045129;28;20518;-75
2021/08/09 08:39:43;;;;;;;3.20;1.38;;;21.40;61.10;;;;;;5046669;28;20024;-74
2021/08/09 08:42:13;;;;;;;6.90;1.92;;;21.40;61.00;;;;;;5042446;28;20498;-76
2021/08/09 08:44:38;;;;;;;2.47;1.20;;;21.50;61.30;;;;;;5045502;28;20024;-75
2021/08/09 08:47:04;;;;;;;3.75;1.30;;;21.60;61.40;;;;;;5042651;28;20047;-75
2021/08/09 08:49:30;;;;;;;2.10;1.00;;;21.60;61.20;;;;;;5041810;28;20026;-75
2021/08/09 08:51:56;;;;;;;3.42;1.60;;;21.70;61.30;;;;;;5051522;28;20502;-75
2021/08/09 08:54:21;;;;;;;2.00;1.10;;;21.90;61.20;;;;;;5047147;28;20021;-73
2021/08/09 08:56:48;;;;;;;2.95;1.90;;;21.70;60.40;;;;;;5045763;28;20108;-74
2021/08/09 08:59:15;;;;;;;4.35;1.50;;;21.60;61.50;;;;;;5051182;28;20030;-75
2021/08/09 09:01:43;;;;;;;3.38;1.50;;;21.50;60.70;;;;;;5040591;28;20036;-74
2021/08/09 09:04:36;;;;;;;2.97;1.25;;;21.40;60.60;;;;;;5049067;28;20017;-74
2021/08/09 09:07:06;;;;;;;3.85;1.40;;;21.40;60.80;;;;;;5047363;28;20065;-75
2021/08/09 09:09:39;;;;;;;4.18;1.50;;;21.30;60.50;;;;;;5049911;28;20029;-77
2021/08/09 09:12:20;;;;;;;5.38;1.63;;;21.40;60.90;;;;;;5049177;28;20513;-75
2021/08/09 09:15:01;;;;;;;3.70;1.27;;;21.50;60.70;;;;;;5048486;28;20522;-75
2021/08/09 09:17:34;;;;;;;3.70;1.30;;;21.80;60.70;;;;;;5041434;28;20025;-74
2021/08/09 09:20:26;;;;;;;1.90;1.10;;;21.80;59.60;;;;;;5050169;28;20013;-76
2021/08/09 09:23:09;;;;;;;2.58;1.30;;;21.90;59.50;;;;;;5049738;28;20059;-75
2021/08/09 09:25:35;;;;;;;3.05;1.55;;;21.90;58.90;;;;;;5047428;28;20103;-74
2021/08/09 09:28:20;;;;;;;2.28;1.20;;;21.90;58.50;;;;;;5048651;28;20431;-73
2021/08/09 09:30:47;;;;;;;3.00;1.40;;;21.80;59.00;;;;;;5055640;28;20040;-74
2021/08/09 09:33:13;;;;;;;2.50;1.10;;;21.90;58.60;;;;;;5050862;28;20017;-76
2021/08/09 09:35:41;;;;;;;1.63;0.90;;;22.00;58.60;;;;;;5041230;28;20039;-75
2021/08/09 09:38:07;;;;;;;3.90;1.25;;;22.10;58.60;;;;;;5045259;28;20396;-76
2021/08/09 09:40:40;;;;;;;2.90;1.05;;;22.20;58.60;;;;;;5049988;28;20025;-75
2021/08/09 09:43:21;;;;;;;2.78;1.27;;;22.30;58.00;;;;;;5050117;28;20017;-75
2021/08/09 09:45:55;;;;;;;4.15;1.50;;;22.10;57.90;;;;;;5046489;28;20025;-73
2021/08/09 09:48:34;;;;;;;2.55;1.20;;;22.10;57.60;;;;;;5050295;28;20047;-78
2021/08/09 09:51:15;;;;;;;4.07;1.20;;;21.90;57.80;;;;;;5034346;28;20052;-74
2021/08/09 09:53:41;;;;;;;4.30;1.70;;;22.00;58.10;;;;;;5041245;28;20017;-76
2021/08/09 09:56:07;;;;;;;7.13;1.60;;;22.00;57.90;;;;;;5046860;28;20025;-74
2021/08/09 09:58:35;;;;;;;1.92;1.00;;;22.00;57.70;;;;;;5049106;28;20375;-75
2021/08/09 10:01:02;;;;;;;4.32;1.40;;;22.00;58.00;;;;;;5047270;28;20025;-75
2021/08/09 10:03:30;;;;;;;2.83;1.25;;;21.90;58.00;;;;;;5034677;28;20045;-75
2021/08/09 10:05:56;;;;;;;4.00;1.30;;;22.00;58.50;;;;;;5042137;28;20431;-76
2021/08/09 10:08:24;;;;;;;2.95;1.27;;;22.10;58.50;;;;;;5046755;28;20024;-75
2021/08/09 10:10:52;;;;;;;3.50;1.30;;;22.20;58.60;;;;;;5047064;28;20442;-77
2021/08/09 10:13:20;;;;;;;3.35;1.40;;;22.20;58.30;;;;;;5048732;28;20039;-77
2021/08/09 10:15:55;;;;;;;3.53;1.35;;;22.10;58.70;;;;;;5046356;28;20503;-75
2021/08/09 10:18:26;;;;;;;2.63;1.08;;;22.10;58.80;;;;;;5047173;28;20032;-75
2021/08/09 10:20:56;;;;;;;2.88;1.30;;;22.10;59.10;;;;;;5048133;28;20033;-76
2021/08/09 10:23:37;;;;;;;2.10;1.30;;;22.30;58.90;;;;;;5047813;28;20047;-75
2021/08/09 10:26:07;;;;;;;4.13;1.52;;;22.30;58.30;;;;;;5047899;28;20163;-74
2021/08/09 10:28:52;;;;;;;2.28;1.17;;;22.30;57.70;;;;;;5045291;28;20025;-75
2021/08/09 10:31:25;;;;;;;2.72;1.15;;;22.40;58.00;;;;;;5041565;28;20125;-73
2021/08/09 10:33:52;;;;;;;4.55;1.30;;;22.50;57.70;;;;;;5039907;28;20033;-74
2021/08/09 10:36:22;;;;;;;3.67;1.20;;;22.50;57.50;;;;;;5044137;28;20025;-75
2021/08/09 10:38:50;;;;;;;4.22;1.50;;;22.50;57.40;;;;;;5043588;28;20517;-74
2021/08/09 10:41:16;;;;;;;2.95;1.17;;;22.40;56.90;;;;;;5040042;28;20382;-74
2021/08/09 10:44:07;;;;;;;3.20;1.10;;;22.30;57.40;;;;;;5050195;28;20037;-75
2021/08/09 10:46:45;;;;;;;2.63;1.40;;;22.50;57.90;;;;;;5047028;28;20037;-75
2021/08/09 10:49:40;;;;;;;3.20;1.10;;;22.70;57.20;;;;;;5047996;28;20029;-76
2021/08/09 10:52:08;;;;;;;3.33;1.20;;;22.80;56.70;;;;;;5041605;28;20033;-73
2021/08/09 10:54:35;;;;;;;3.30;1.33;;;22.70;56.30;;;;;;5044699;28;20067;-75
2021/08/09 10:57:05;;;;;;;3.63;1.00;;;22.80;56.50;;;;;;5046148;28;20360;-74
2021/08/09 10:59:44;;;;;;;3.03;1.13;;;22.80;56.60;;;;;;5042153;28;20175;-74
2021/08/09 11:02:23;;;;;;;3.55;1.50;;;22.70;55.60;;;;;;5046401;28;20025;-73
2021/08/09 11:05:16;;;;;;;4.10;1.15;;;22.50;55.90;;;;;;5047441;28;20025;-74
2021/08/09 11:07:44;;;;;;;3.00;0.90;;;22.60;56.70;;;;;;5040684;28;20025;-75
2021/08/09 11:10:10;;;;;;;3.53;1.20;;;22.70;56.80;;;;;;5043623;28;20047;-73
2021/08/09 11:12:59;;;;;;;1.60;0.80;;;22.80;56.80;;;;;;5045915;28;20033;-74
2021/08/09 11:15:25;;;;;;;3.47;1.20;;;22.80;56.70;;;;;;5046014;28;20017;-74
2021/08/09 11:17:56;;;;;;;2.08;0.95;;;22.80;56.60;;;;;;5047219;28;20036;-74
2021/08/09 11:20:25;;;;;;;1.95;0.90;;;22.70;56.60;;;;;;5045940;28;20025;-73
2021/08/09 11:23:07;;;;;;;2.90;1.17;;;22.50;56.40;;;;;;5040336;28;20510;-74
2021/08/09 11:25:41;;;;;;;2.63;0.80;;;22.40;56.70;;;;;;5045443;28;20147;-73
2021/08/09 11:28:18;;;;;;;3.95;1.13;;;22.10;57.70;;;;;;5045178;28;20059;-74
2021/08/09 11:30:46;;;;;;;2.45;0.90;;;22.00;58.70;;;;;;5043182;28;20053;-74
2021/08/09 11:33:22;;;;;;;3.95;1.10;;;21.90;59.20;;;;;;5049226;28;20040;-74
2021/08/09 11:35:48;;;;;;;2.83;0.90;;;21.70;59.30;;;;;;5048160;28;20383;-76
2021/08/09 11:38:15;;;;;;;2.33;1.13;;;21.50;59.60;;;;;;5051457;28;20052;-74
2021/08/09 11:40:46;;;;;;;3.35;0.90;;;21.40;59.90;;;;;;5047396;28;20025;-75
2021/08/09 11:43:21;;;;;;;1.40;0.70;;;21.20;60.50;;;;;;5051576;28;20032;-75
2021/08/09 11:45:47;;;;;;;3.67;1.42;;;21.10;61.10;;;;;;5039907;28;20066;-76
2021/08/09 11:48:13;;;;;;;2.97;1.25;;;21.00;61.70;;;;;;5042450;28;20025;-74
2021/08/09 11:50:40;;;;;;;1.77;1.00;;;21.00;62.10;;;;;;5052039;28;20120;-74
2021/08/09 11:53:07;;;;;;;3.80;1.10;;;21.10;62.30;;;;;;5049008;28;20033;-75
2021/08/09 11:55:34;;;;;;;2.38;1.13;;;21.20;62.10;;;;;;5038289;28;20029;-73
2021/08/09 11:57:59;;;;;;;2.08;0.80;;;21.20;61.90;;;;;;5040176;28;20025;-73
2021/08/09 12:00:36;;;;;;;1.73;0.80;;;21.40;61.90;;;;;;5050051;28;20539;-73
2021/08/09 12:03:13;;;;;;;1.20;0.90;;;21.60;61.80;;;;;;5048995;28;20036;-73
2021/08/09 12:05:39;;;;;;;1.75;0.88;;;21.70;61.50;;;;;;5051517;28;20367;-74
2021/08/09 12:08:06;;;;;;;2.10;0.90;;;21.80;61.30;;;;;;5050098;28;20047;-74
2021/08/09 12:10:33;;;;;;;1.80;0.90;;;21.90;61.70;;;;;;5051494;28;20029;-73
2021/08/09 12:13:00;;;;;;;1.92;1.08;;;22.00;60.90;;;;;;5050358;28;20040;-73
2021/08/09 12:15:26;;;;;;;2.33;1.00;;;21.90;60.80;;;;;;5047155;28;20103;-74
2021/08/09 12:18:08;;;;;;;2.08;0.95;;;22.00;60.90;;;;;;5046141;28;20112;-74
2021/08/09 12:20:35;;;;;;;3.03;0.90;;;22.10;60.40;;;;;;5049597;28;20120;-73
2021/08/09 12:23:01;;;;;;;1.50;1.10;;;22.20;59.80;;;;;;5039894;28;20036;-73
2021/08/09 12:25:37;;;;;;;3.47;1.38;;;22.30;58.20;;;;;;5043647;28;20029;-73
2021/08/09 12:28:07;;;;;;;3.08;1.10;;;22.10;57.00;;;;;;5041608;28;20017;-73
2021/08/09 12:30:52;;;;;;;3.58;1.08;;;22.20;57.50;;;;;;5049514;28;20053;-73
2021/08/09 12:33:19;;;;;;;2.42;1.02;;;22.40;57.20;;;;;;5043039;28;20033;-73
2021/08/09 12:35:45;;;;;;;1.73;1.00;;;22.60;56.90;;;;;;5044679;28;20105;-73
2021/08/09 12:38:13;;;;;;;1.77;0.93;;;22.80;56.80;;;;;;5048191;28;20040;-73
2021/08/09 12:40:51;;;;;;;3.03;1.20;;;23.00;56.60;;;;;;5046103;28;20479;-72
2021/08/09 12:43:19;;;;;;;2.63;1.02;;;23.20;56.30;;;;;;5043347;28;20056;-72
2021/08/09 12:45:45;;;;;;;2.78;1.00;;;23.30;55.30;;;;;;5041853;28;20021;-73
2021/08/09 12:48:12;;;;;;;1.13;0.63;;;23.40;55.30;;;;;;5044616;28;20083;-73
2021/08/09 12:50:39;;;;;;;1.25;0.90;;;23.60;55.30;;;;;;5045066;28;20036;-73
2021/08/09 12:53:05;;;;;;;2.10;1.10;;;23.80;54.90;;;;;;5044959;28;20037;-74